sensor_id;sensor_type;location;lat;lon;timestamp;pressure;altitude;pressure_sealevel;temperature;humidity
21129;BME280;10722;51.910;8.352;2023-12-22T00:00:50;98830.19;;;5.78;87.33
21129;BME280;10722;51.910;8.352;2023-12-22T00:03:36;98845.66;;;5.91;87.83
21129;BME280;10722;51.910;8.352;2023-12-22T00:06:21;98842.25;;;5.89;87.92
21129;BME280;10722;51.910;8.352;2023-12-22T00:09:06;98845.56;;;5.72;88.19
21129;BME280;10722;51.910;8.352;2023-12-22T00:11:51;98853.22;;;5.71;88.74
21129;BME280;10722;51.910;8.352;2023-12-22T00:14:36;98854.94;;;5.70;89.02
21129;BME280;10722;51.910;8.352;2023-12-22T00:17:21;98873.88;;;5.86;89.33
21129;BME280;10722;51.910;8.352;2023-12-22T00:20:06;98864.41;;;5.77;89.47
21129;BME280;10722;51.910;8.352;2023-12-22T00:22:51;98872.97;;;5.82;89.73
21129;BME280;10722;51.910;8.352;2023-12-22T00:25:36;98868.69;;;5.81;89.77
21129;BME280;10722;51.910;8.352;2023-12-22T00:28:22;98871.28;;;5.81;90.28
21129;BME280;10722;51.910;8.352;2023-12-22T00:31:07;98871.31;;;5.91;90.05
21129;BME280;10722;51.910;8.352;2023-12-22T00:33:52;98867.00;;;5.82;89.40
21129;BME280;10722;51.910;8.352;2023-12-22T00:36:37;98839.69;;;5.92;88.81
21129;BME280;10722;51.910;8.352;2023-12-22T00:39:22;98832.88;;;5.94;87.61
21129;BME280;10722;51.910;8.352;2023-12-22T00:42:07;98818.38;;;5.99;86.33
21129;BME280;10722;51.910;8.352;2023-12-22T00:44:52;98761.06;;;6.07;84.25
21129;BME280;10722;51.910;8.352;2023-12-22T00:47:37;98732.00;;;6.09;83.38
21129;BME280;10722;51.910;8.352;2023-12-22T00:50:22;98714.88;;;6.11;82.54
21129;BME280;10722;51.910;8.352;2023-12-22T00:53:07;98723.44;;;6.10;82.48
21129;BME280;10722;51.910;8.352;2023-12-22T00:55:53;98734.50;;;5.99;82.41
21129;BME280;10722;51.910;8.352;2023-12-22T00:58:39;98739.66;;;6.04;82.48
21129;BME280;10722;51.910;8.352;2023-12-22T01:01:24;98729.41;;;6.01;82.60
21129;BME280;10722;51.910;8.352;2023-12-22T01:04:10;98723.34;;;5.93;82.61
21129;BME280;10722;51.910;8.352;2023-12-22T01:06:55;98730.16;;;5.91;82.67
21129;BME280;10722;51.910;8.352;2023-12-22T01:09:40;98747.25;;;5.84;82.84
21129;BME280;10722;51.910;8.352;2023-12-22T01:12:28;98742.13;;;5.87;82.93
21129;BME280;10722;51.910;8.352;2023-12-22T01:15:13;98732.72;;;5.88;82.61
21129;BME280;10722;51.910;8.352;2023-12-22T01:17:58;98726.72;;;5.87;82.08
21129;BME280;10722;51.910;8.352;2023-12-22T01:20:43;98722.47;;;5.86;81.77
21129;BME280;10722;51.910;8.352;2023-12-22T01:23:27;98703.66;;;5.92;80.95
21129;BME280;10722;51.910;8.352;2023-12-22T01:26:12;98688.25;;;5.89;80.59
21129;BME280;10722;51.910;8.352;2023-12-22T01:28:57;98680.63;;;5.98;80.13
21129;BME280;10722;51.910;8.352;2023-12-22T01:31:42;98679.75;;;6.02;80.39
21129;BME280;10722;51.910;8.352;2023-12-22T01:34:28;98719.91;;;5.86;81.84
21129;BME280;10722;51.910;8.352;2023-12-22T01:37:13;98757.56;;;5.89;82.65
21129;BME280;10722;51.910;8.352;2023-12-22T01:39:58;98802.84;;;5.83;83.36
21129;BME280;10722;51.910;8.352;2023-12-22T01:42:43;98838.09;;;6.03;84.20
21129;BME280;10722;51.910;8.352;2023-12-22T01:45:28;98839.81;;;6.05;83.92
21129;BME280;10722;51.910;8.352;2023-12-22T01:48:12;98873.19;;;6.09;84.45
21129;BME280;10722;51.910;8.352;2023-12-22T01:50:58;98849.50;;;5.32;85.10
21129;BME280;10722;51.910;8.352;2023-12-22T01:53:45;98864.41;;;4.83;85.99
21129;BME280;10722;51.910;8.352;2023-12-22T01:56:30;98920.66;;;4.70;87.53
21129;BME280;10722;51.910;8.352;2023-12-22T01:59:16;98927.91;;;4.38;88.52
21129;BME280;10722;51.910;8.352;2023-12-22T02:02:02;98980.56;;;4.21;90.15
21129;BME280;10722;51.910;8.352;2023-12-22T02:04:47;99006.25;;;4.25;91.36
21129;BME280;10722;51.910;8.352;2023-12-22T02:07:33;99000.16;;;4.19;92.91
21129;BME280;10722;51.910;8.352;2023-12-22T02:10:18;99025.75;;;4.19;93.51
21129;BME280;10722;51.910;8.352;2023-12-22T02:13:06;99035.34;;;4.32;94.18
21129;BME280;10722;51.910;8.352;2023-12-22T02:16:04;99041.41;;;4.39;95.01
21129;BME280;10722;51.910;8.352;2023-12-22T02:18:55;99027.13;;;4.53;95.49
21129;BME280;10722;51.910;8.352;2023-12-22T02:22:03;99021.31;;;4.63;95.84
21129;BME280;10722;51.910;8.352;2023-12-22T02:24:53;99021.41;;;4.72;96.07
21129;BME280;10722;51.910;8.352;2023-12-22T02:27:49;99035.38;;;4.93;95.86
21129;BME280;10722;51.910;8.352;2023-12-22T02:30:43;99045.75;;;5.02;95.69
21129;BME280;10722;51.910;8.352;2023-12-22T02:33:34;99022.63;;;4.99;95.95
21129;BME280;10722;51.910;8.352;2023-12-22T02:36:21;99016.44;;;4.83;95.39
21129;BME280;10722;51.910;8.352;2023-12-22T02:39:08;99005.22;;;4.75;95.19
21129;BME280;10722;51.910;8.352;2023-12-22T02:41:53;99012.94;;;4.77;95.06
21129;BME280;10722;51.910;8.352;2023-12-22T02:44:38;99017.44;;;4.94;95.11
21129;BME280;10722;51.910;8.352;2023-12-22T02:47:24;99014.94;;;4.99;95.35
21129;BME280;10722;51.910;8.352;2023-12-22T02:50:10;99006.41;;;4.99;95.23
21129;BME280;10722;51.910;8.352;2023-12-22T02:52:55;99004.63;;;4.94;94.71
21129;BME280;10722;51.910;8.352;2023-12-22T02:55:41;98991.09;;;5.06;94.43
21129;BME280;10722;51.910;8.352;2023-12-22T02:58:26;98962.22;;;5.23;92.97
21129;BME280;10722;51.910;8.352;2023-12-22T03:01:11;98961.44;;;5.28;92.01
21129;BME280;10722;51.910;8.352;2023-12-22T03:03:56;98924.72;;;5.31;90.88
21129;BME280;10722;51.910;8.352;2023-12-22T03:06:41;98904.38;;;5.49;90.00
21129;BME280;10722;51.910;8.352;2023-12-22T03:09:26;98881.31;;;5.54;88.46
21129;BME280;10722;51.910;8.352;2023-12-22T03:12:11;98872.69;;;5.46;87.30
21129;BME280;10722;51.910;8.352;2023-12-22T03:14:56;98839.44;;;5.56;85.90
21129;BME280;10722;51.910;8.352;2023-12-22T03:17:41;98818.94;;;5.59;84.75
21129;BME280;10722;51.910;8.352;2023-12-22T03:20:26;98813.81;;;5.62;84.47
21129;BME280;10722;51.910;8.352;2023-12-22T03:23:11;98790.66;;;5.52;83.97
21129;BME280;10722;51.910;8.352;2023-12-22T03:25:56;98783.84;;;5.54;83.83
21129;BME280;10722;51.910;8.352;2023-12-22T03:28:42;98822.47;;;5.72;84.20
21129;BME280;10722;51.910;8.352;2023-12-22T03:31:27;98848.94;;;5.67;84.88
21129;BME280;10722;51.910;8.352;2023-12-22T03:34:13;98867.53;;;5.39;86.45
21129;BME280;10722;51.910;8.352;2023-12-22T03:36:58;98892.06;;;5.13;87.27
21129;BME280;10722;51.910;8.352;2023-12-22T03:39:43;98924.63;;;5.23;88.62
21129;BME280;10722;51.910;8.352;2023-12-22T03:42:28;98926.44;;;5.32;89.42
21129;BME280;10722;51.910;8.352;2023-12-22T03:45:12;98920.34;;;5.22;89.57
21129;BME280;10722;51.910;8.352;2023-12-22T03:47:58;98930.50;;;5.11;90.26
21129;BME280;10722;51.910;8.352;2023-12-22T03:50:43;98939.94;;;5.14;90.54
21129;BME280;10722;51.910;8.352;2023-12-22T03:53:28;98946.81;;;5.18;90.57
21129;BME280;10722;51.910;8.352;2023-12-22T03:56:13;98930.53;;;5.13;90.39
21129;BME280;10722;51.910;8.352;2023-12-22T03:58:58;98947.69;;;5.23;90.56
21129;BME280;10722;51.910;8.352;2023-12-22T04:01:43;98943.41;;;5.21;90.43
21129;BME280;10722;51.910;8.352;2023-12-22T04:04:27;98945.16;;;5.26;90.73
21129;BME280;10722;51.910;8.352;2023-12-22T04:07:13;98953.00;;;5.40;89.94
21129;BME280;10722;51.910;8.352;2023-12-22T04:09:58;98920.56;;;5.44;89.39
21129;BME280;10722;51.910;8.352;2023-12-22T04:12:43;98906.00;;;5.43;89.41
21129;BME280;10722;51.910;8.352;2023-12-22T04:15:28;98917.16;;;5.45;89.60
21129;BME280;10722;51.910;8.352;2023-12-22T04:18:13;98939.28;;;5.33;90.12
21129;BME280;10722;51.910;8.352;2023-12-22T04:20:58;98939.31;;;5.39;90.33
21129;BME280;10722;51.910;8.352;2023-12-22T04:23:43;98947.75;;;5.28;90.22
21129;BME280;10722;51.910;8.352;2023-12-22T04:26:28;98952.09;;;5.33;90.26
21129;BME280;10722;51.910;8.352;2023-12-22T04:29:14;98974.28;;;5.31;90.10
21129;BME280;10722;51.910;8.352;2023-12-22T04:31:59;98977.69;;;5.29;90.70
21129;BME280;10722;51.910;8.352;2023-12-22T04:34:44;98983.47;;;5.11;91.25
21129;BME280;10722;51.910;8.352;2023-12-22T04:37:29;99007.38;;;5.08;91.61
21129;BME280;10722;51.910;8.352;2023-12-22T04:40:14;99020.16;;;5.05;92.83
21129;BME280;10722;51.910;8.352;2023-12-22T04:42:59;99033.06;;;5.13;93.57
21129;BME280;10722;51.910;8.352;2023-12-22T04:45:44;99038.81;;;4.95;93.56
21129;BME280;10722;51.910;8.352;2023-12-22T04:48:29;99049.88;;;4.91;93.77
21129;BME280;10722;51.910;8.352;2023-12-22T04:51:14;99051.56;;;4.90;94.02
21129;BME280;10722;51.910;8.352;2023-12-22T04:54:00;99052.34;;;4.86;93.78
21129;BME280;10722;51.910;8.352;2023-12-22T04:56:45;99046.25;;;4.78;94.23
21129;BME280;10722;51.910;8.352;2023-12-22T04:59:30;99047.06;;;4.74;94.55
21129;BME280;10722;51.910;8.352;2023-12-22T05:02:16;99047.81;;;4.65;94.82
21129;BME280;10722;51.910;8.352;2023-12-22T05:05:01;99036.53;;;4.56;95.09
21129;BME280;10722;51.910;8.352;2023-12-22T05:07:45;99056.22;;;4.57;95.42
21129;BME280;10722;51.910;8.352;2023-12-22T05:10:31;99054.44;;;4.51;95.66
21129;BME280;10722;51.910;8.352;2023-12-22T05:13:16;99047.69;;;4.58;95.86
21129;BME280;10722;51.910;8.352;2023-12-22T05:16:01;99068.19;;;4.58;95.97
21129;BME280;10722;51.910;8.352;2023-12-22T05:18:46;99063.09;;;4.59;96.28
21129;BME280;10722;51.910;8.352;2023-12-22T05:21:31;99045.88;;;4.51;96.27
21129;BME280;10722;51.910;8.352;2023-12-22T05:24:16;99049.34;;;4.54;96.50
21129;BME280;10722;51.910;8.352;2023-12-22T05:27:01;99060.44;;;4.55;96.45
21129;BME280;10722;51.910;8.352;2023-12-22T05:29:46;99040.66;;;4.43;96.56
21129;BME280;10722;51.910;8.352;2023-12-22T05:32:31;99050.75;;;4.35;96.68
21129;BME280;10722;51.910;8.352;2023-12-22T05:35:16;99046.50;;;4.36;96.70
21129;BME280;10722;51.910;8.352;2023-12-22T05:38:02;99058.66;;;4.49;96.83
21129;BME280;10722;51.910;8.352;2023-12-22T05:40:47;99072.41;;;4.56;96.70
21129;BME280;10722;51.910;8.352;2023-12-22T05:43:33;99076.75;;;4.61;96.49
21129;BME280;10722;51.910;8.352;2023-12-22T05:46:18;99070.03;;;4.68;96.35
21129;BME280;10722;51.910;8.352;2023-12-22T05:49:03;99067.56;;;4.74;96.02
21129;BME280;10722;51.910;8.352;2023-12-22T05:51:49;99059.84;;;4.71;96.01
21129;BME280;10722;51.910;8.352;2023-12-22T05:54:33;99049.84;;;4.89;95.54
21129;BME280;10722;51.910;8.352;2023-12-22T05:57:18;99053.25;;;4.88;95.60
21129;BME280;10722;51.910;8.352;2023-12-22T06:00:04;99063.44;;;4.85;95.44
21129;BME280;10722;51.910;8.352;2023-12-22T06:02:49;99072.06;;;4.90;96.06
21129;BME280;10722;51.910;8.352;2023-12-22T06:05:34;99063.44;;;4.85;95.79
21129;BME280;10722;51.910;8.352;2023-12-22T06:08:20;99067.00;;;4.95;95.40
21129;BME280;10722;51.910;8.352;2023-12-22T06:11:05;99056.88;;;5.06;95.41
21129;BME280;10722;51.910;8.352;2023-12-22T06:13:50;99057.78;;;5.09;94.94
21129;BME280;10722;51.910;8.352;2023-12-22T06:16:35;99055.38;;;5.23;93.70
21129;BME280;10722;51.910;8.352;2023-12-22T06:19:20;99057.09;;;5.23;93.91
21129;BME280;10722;51.910;8.352;2023-12-22T06:22:05;99056.38;;;5.33;92.96
21129;BME280;10722;51.910;8.352;2023-12-22T06:24:50;99053.84;;;5.37;92.67
21129;BME280;10722;51.910;8.352;2023-12-22T06:27:36;99038.50;;;5.39;92.27
21129;BME280;10722;51.910;8.352;2023-12-22T06:30:20;99050.53;;;5.45;92.14
21129;BME280;10722;51.910;8.352;2023-12-22T06:33:05;99047.94;;;5.43;92.12
21129;BME280;10722;51.910;8.352;2023-12-22T06:35:51;99065.09;;;5.49;92.04
21129;BME280;10722;51.910;8.352;2023-12-22T06:38:35;99055.72;;;5.51;91.26
21129;BME280;10722;51.910;8.352;2023-12-22T06:41:30;99041.25;;;5.56;90.94
21129;BME280;10722;51.910;8.352;2023-12-22T06:44:16;99031.75;;;5.49;90.46
21129;BME280;10722;51.910;8.352;2023-12-22T06:47:01;99023.22;;;5.50;90.14
21129;BME280;10722;51.910;8.352;2023-12-22T06:49:46;99041.25;;;5.56;89.78
21129;BME280;10722;51.910;8.352;2023-12-22T06:52:31;99038.66;;;5.54;89.88
21129;BME280;10722;51.910;8.352;2023-12-22T06:55:16;99041.25;;;5.57;89.37
21129;BME280;10722;51.910;8.352;2023-12-22T06:58:02;99042.16;;;5.61;89.36
21129;BME280;10722;51.910;8.352;2023-12-22T07:00:47;99032.66;;;5.54;89.60
21129;BME280;10722;51.910;8.352;2023-12-22T07:03:32;99042.09;;;5.56;89.13
21129;BME280;10722;51.910;8.352;2023-12-22T07:06:18;99042.13;;;5.58;89.37
21129;BME280;10722;51.910;8.352;2023-12-22T07:12:00;99044.69;;;5.59;89.43
21129;BME280;10722;51.910;8.352;2023-12-22T07:14:45;99072.03;;;5.57;89.71
21129;BME280;10722;51.910;8.352;2023-12-22T07:17:31;99056.69;;;5.62;89.39
21129;BME280;10722;51.910;8.352;2023-12-22T07:20:16;99070.50;;;5.72;89.66
21129;BME280;10722;51.910;8.352;2023-12-22T07:23:01;99073.84;;;5.68;89.30
21129;BME280;10722;51.910;8.352;2023-12-22T07:25:46;99083.38;;;5.79;89.77
21129;BME280;10722;51.910;8.352;2023-12-22T07:28:31;99083.28;;;5.70;89.62
21129;BME280;10722;51.910;8.352;2023-12-22T07:31:18;99075.66;;;5.76;89.55
21129;BME280;10722;51.910;8.352;2023-12-22T07:34:03;99070.50;;;5.73;89.15
21129;BME280;10722;51.910;8.352;2023-12-22T07:36:48;99076.53;;;5.78;89.35
21129;BME280;10722;51.910;8.352;2023-12-22T07:39:47;99069.66;;;5.74;89.29
21129;BME280;10722;51.910;8.352;2023-12-22T07:42:32;99061.19;;;5.81;89.09
21129;BME280;10722;51.910;8.352;2023-12-22T07:45:17;99064.56;;;5.79;89.06
21129;BME280;10722;51.910;8.352;2023-12-22T07:48:02;99071.50;;;5.86;88.90
21129;BME280;10722;51.910;8.352;2023-12-22T07:50:47;99080.00;;;5.80;89.05
21129;BME280;10722;51.910;8.352;2023-12-22T07:53:33;99083.47;;;5.87;88.57
21129;BME280;10722;51.910;8.352;2023-12-22T07:56:18;99075.88;;;5.96;88.29
21129;BME280;10722;51.910;8.352;2023-12-22T07:59:03;99078.50;;;5.98;88.31
21129;BME280;10722;51.910;8.352;2023-12-22T08:02:07;99081.03;;;5.95;88.18
21129;BME280;10722;51.910;8.352;2023-12-22T08:04:53;99085.31;;;5.96;88.18
21129;BME280;10722;51.910;8.352;2023-12-22T08:07:37;99107.47;;;5.91;88.50
21129;BME280;10722;51.910;8.352;2023-12-22T08:10:22;99105.84;;;5.96;88.71
21129;BME280;10722;51.910;8.352;2023-12-22T08:13:08;99126.47;;;6.05;88.70
21129;BME280;10722;51.910;8.352;2023-12-22T08:15:53;99117.91;;;6.03;88.42
21129;BME280;10722;51.910;8.352;2023-12-22T08:18:38;99118.00;;;6.12;88.30
21129;BME280;10722;51.910;8.352;2023-12-22T08:21:23;99094.94;;;6.17;87.96
21129;BME280;10722;51.910;8.352;2023-12-22T08:24:23;99090.59;;;6.11;88.10
21129;BME280;10722;51.910;8.352;2023-12-22T08:27:09;99108.50;;;6.08;88.35
21129;BME280;10722;51.910;8.352;2023-12-22T08:29:54;99110.34;;;6.17;88.20
21129;BME280;10722;51.910;8.352;2023-12-22T08:32:39;99107.66;;;6.06;88.49
21129;BME280;10722;51.910;8.352;2023-12-22T08:35:24;99121.41;;;6.11;88.89
21129;BME280;10722;51.910;8.352;2023-12-22T08:38:09;99139.22;;;5.94;89.26
21129;BME280;10722;51.910;8.352;2023-12-22T08:40:55;99155.59;;;6.07;89.84
21129;BME280;10722;51.910;8.352;2023-12-22T08:43:44;99163.28;;;6.05;90.04
21129;BME280;10722;51.910;8.352;2023-12-22T08:46:30;99185.28;;;5.87;90.60
21129;BME280;10722;51.910;8.352;2023-12-22T08:49:14;99205.81;;;5.88;90.85
21129;BME280;10722;51.910;8.352;2023-12-22T08:52:00;99211.81;;;5.87;91.42
21129;BME280;10722;51.910;8.352;2023-12-22T08:54:45;99222.72;;;5.69;91.85
21129;BME280;10722;51.910;8.352;2023-12-22T08:57:30;99242.47;;;5.75;92.92
21129;BME280;10722;51.910;8.352;2023-12-22T09:00:15;99239.97;;;5.82;92.81
21129;BME280;10722;51.910;8.352;2023-12-22T09:03:00;99230.44;;;5.72;92.79
21129;BME280;10722;51.910;8.352;2023-12-22T09:05:45;99235.69;;;5.81;93.00
21129;BME280;10722;51.910;8.352;2023-12-22T09:08:30;99226.97;;;5.69;93.35
21129;BME280;10722;51.910;8.352;2023-12-22T09:11:19;99238.16;;;5.72;93.73
21129;BME280;10722;51.910;8.352;2023-12-22T09:14:06;99238.06;;;5.68;94.21
21129;BME280;10722;51.910;8.352;2023-12-22T09:16:51;99252.66;;;5.70;94.81
21129;BME280;10722;51.910;8.352;2023-12-22T09:19:36;99264.59;;;5.68;94.87
21129;BME280;10722;51.910;8.352;2023-12-22T09:22:21;99261.06;;;5.58;95.33
21129;BME280;10722;51.910;8.352;2023-12-22T09:25:07;99264.31;;;5.47;96.07
21129;BME280;10722;51.910;8.352;2023-12-22T09:27:51;99289.19;;;5.52;96.83
21129;BME280;10722;51.910;8.352;2023-12-22T09:30:36;99280.69;;;5.56;96.85
21129;BME280;10722;51.910;8.352;2023-12-22T09:33:21;99291.66;;;5.48;97.33
21129;BME280;10722;51.910;8.352;2023-12-22T09:36:07;99295.16;;;5.53;97.67
21129;BME280;10722;51.910;8.352;2023-12-22T09:38:52;99307.19;;;5.57;97.92
21129;BME280;10722;51.910;8.352;2023-12-22T09:41:37;99291.03;;;5.61;98.21
21129;BME280;10722;51.910;8.352;2023-12-22T09:44:22;99289.47;;;5.72;98.30
21129;BME280;10722;51.910;8.352;2023-12-22T09:47:09;99284.41;;;5.78;98.42
21129;BME280;10722;51.910;8.352;2023-12-22T09:49:57;99282.78;;;5.83;98.35
21129;BME280;10722;51.910;8.352;2023-12-22T09:52:43;99283.63;;;5.84;98.34
21129;BME280;10722;51.910;8.352;2023-12-22T09:55:31;99282.06;;;5.94;98.50
21129;BME280;10722;51.910;8.352;2023-12-22T09:58:17;99277.72;;;5.91;98.49
21129;BME280;10722;51.910;8.352;2023-12-22T10:01:04;99265.81;;;5.93;98.56
21129;BME280;10722;51.910;8.352;2023-12-22T10:03:49;99272.72;;;5.99;98.60
21129;BME280;10722;51.910;8.352;2023-12-22T10:06:34;99277.13;;;6.06;98.70
21129;BME280;10722;51.910;8.352;2023-12-22T10:09:20;99284.09;;;6.19;98.93
21129;BME280;10722;51.910;8.352;2023-12-22T10:12:06;99273.00;;;6.20;98.63
21129;BME280;10722;51.910;8.352;2023-12-22T10:14:53;99254.25;;;6.26;98.32
21129;BME280;10722;51.910;8.352;2023-12-22T10:17:39;99245.66;;;6.24;98.05
21129;BME280;10722;51.910;8.352;2023-12-22T10:20:24;99245.72;;;6.28;98.41
21129;BME280;10722;51.910;8.352;2023-12-22T10:23:09;99234.53;;;6.23;98.23
21129;BME280;10722;51.910;8.352;2023-12-22T10:25:57;99245.75;;;6.32;98.27
21129;BME280;10722;51.910;8.352;2023-12-22T10:28:42;99240.59;;;6.32;98.30
21129;BME280;10722;51.910;8.352;2023-12-22T10:31:39;99214.97;;;6.38;98.58
21129;BME280;10722;51.910;8.352;2023-12-22T10:34:25;99208.81;;;6.22;98.50
21129;BME280;10722;51.910;8.352;2023-12-22T10:37:10;99208.78;;;6.17;98.91
21129;BME280;10722;51.910;8.352;2023-12-22T10:39:55;99214.56;;;6.01;99.21
21129;BME280;10722;51.910;8.352;2023-12-22T10:42:40;99222.09;;;5.90;99.76
21129;BME280;10722;51.910;8.352;2023-12-22T10:45:25;99200.72;;;5.90;100.00
21129;BME280;10722;51.910;8.352;2023-12-22T10:48:10;99195.50;;;5.83;100.00
21129;BME280;10722;51.910;8.352;2023-12-22T10:50:56;99220.38;;;5.88;100.00
21129;BME280;10722;51.910;8.352;2023-12-22T10:53:42;99231.44;;;5.85;100.00
21129;BME280;10722;51.910;8.352;2023-12-22T10:56:28;99246.06;;;5.91;100.00
21129;BME280;10722;51.910;8.352;2023-12-22T10:59:16;99237.47;;;5.87;100.00
21129;BME280;10722;51.910;8.352;2023-12-22T11:02:03;99226.34;;;5.87;100.00
21129;BME280;10722;51.910;8.352;2023-12-22T11:04:57;99227.22;;;5.87;100.00
21129;BME280;10722;51.910;8.352;2023-12-22T11:07:45;99216.97;;;5.89;100.00
21129;BME280;10722;51.910;8.352;2023-12-22T11:10:34;99238.63;;;6.09;100.00
21129;BME280;10722;51.910;8.352;2023-12-22T11:13:23;99230.13;;;6.13;100.00
21129;BME280;10722;51.910;8.352;2023-12-22T11:16:09;99223.22;;;6.11;100.00
21129;BME280;10722;51.910;8.352;2023-12-22T11:18:55;99200.25;;;6.20;100.00
21129;BME280;10722;51.910;8.352;2023-12-22T11:21:40;99185.53;;;6.06;100.00
21129;BME280;10722;51.910;8.352;2023-12-22T11:24:28;99169.31;;;6.09;100.00
21129;BME280;10722;51.910;8.352;2023-12-22T11:27:13;99178.88;;;6.24;100.00
21129;BME280;10722;51.910;8.352;2023-12-22T11:30:00;99183.25;;;6.33;100.00
21129;BME280;10722;51.910;8.352;2023-12-22T11:32:46;99184.84;;;6.20;100.00
21129;BME280;10722;51.910;8.352;2023-12-22T11:35:34;99190.94;;;6.31;100.00
21129;BME280;10722;51.910;8.352;2023-12-22T11:38:20;99189.16;;;6.22;100.00
21129;BME280;10722;51.910;8.352;2023-12-22T11:41:06;99191.63;;;6.16;100.00
21129;BME280;10722;51.910;8.352;2023-12-22T11:43:54;99201.00;;;6.11;100.00
21129;BME280;10722;51.910;8.352;2023-12-22T11:46:41;99195.13;;;6.24;100.00
21129;BME280;10722;51.910;8.352;2023-12-22T11:49:34;99187.44;;;6.23;100.00
21129;BME280;10722;51.910;8.352;2023-12-22T11:52:25;99174.47;;;6.14;100.00
21129;BME280;10722;51.910;8.352;2023-12-22T11:55:11;99172.97;;;6.33;100.00
21129;BME280;10722;51.910;8.352;2023-12-22T11:57:56;99150.75;;;6.38;100.00
21129;BME280;10722;51.910;8.352;2023-12-22T12:00:40;99154.22;;;6.40;100.00
21129;BME280;10722;51.910;8.352;2023-12-22T12:03:26;99157.41;;;6.17;100.00
21129;BME280;10722;51.910;8.352;2023-12-22T12:09:12;99121.44;;;6.14;100.00
21129;BME280;10722;51.910;8.352;2023-12-22T12:12:09;99105.13;;;6.11;100.00
21129;BME280;10722;51.910;8.352;2023-12-22T12:14:57;99114.50;;;6.07;100.00
21129;BME280;10722;51.910;8.352;2023-12-22T12:17:43;99122.28;;;6.16;100.00
21129;BME280;10722;51.910;8.352;2023-12-22T12:20:28;99113.75;;;6.17;100.00
21129;BME280;10722;51.910;8.352;2023-12-22T12:23:15;99112.09;;;6.24;100.00
21129;BME280;10722;51.910;8.352;2023-12-22T12:26:00;99111.38;;;6.37;100.00
21129;BME280;10722;51.910;8.352;2023-12-22T12:28:46;99125.91;;;6.35;100.00
21129;BME280;10722;51.910;8.352;2023-12-22T12:31:36;99113.84;;;6.26;100.00
21129;BME280;10722;51.910;8.352;2023-12-22T12:34:22;99118.06;;;6.21;100.00
21129;BME280;10722;51.910;8.352;2023-12-22T12:37:08;99111.28;;;6.29;100.00
21129;BME280;10722;51.910;8.352;2023-12-22T12:39:58;99112.97;;;6.27;100.00
21129;BME280;10722;51.910;8.352;2023-12-22T12:42:43;99112.16;;;6.28;100.00
21129;BME280;10722;51.910;8.352;2023-12-22T12:45:29;99097.59;;;6.31;100.00
21129;BME280;10722;51.910;8.352;2023-12-22T12:48:18;99084.84;;;6.40;100.00
21129;BME280;10722;51.910;8.352;2023-12-22T12:51:04;99068.50;;;6.32;100.00
21129;BME280;10722;51.910;8.352;2023-12-22T12:53:50;99070.28;;;6.42;100.00
21129;BME280;10722;51.910;8.352;2023-12-22T12:56:40;99064.31;;;6.40;100.00
21129;BME280;10722;51.910;8.352;2023-12-22T12:59:25;99060.88;;;6.39;100.00
21129;BME280;10722;51.910;8.352;2023-12-22T13:02:10;99051.47;;;6.43;100.00
21129;BME280;10722;51.910;8.352;2023-12-22T13:04:56;99055.75;;;6.42;100.00
21129;BME280;10722;51.910;8.352;2023-12-22T13:07:41;99052.34;;;6.46;100.00
21129;BME280;10722;51.910;8.352;2023-12-22T13:10:26;99050.69;;;6.53;100.00
21129;BME280;10722;51.910;8.352;2023-12-22T13:13:11;99070.31;;;6.43;100.00
21129;BME280;10722;51.910;8.352;2023-12-22T13:15:56;99060.81;;;6.33;100.00
21129;BME280;10722;51.910;8.352;2023-12-22T13:18:42;99073.75;;;6.44;100.00
21129;BME280;10722;51.910;8.352;2023-12-22T13:21:28;99084.00;;;6.41;100.00
21129;BME280;10722;51.910;8.352;2023-12-22T13:24:17;99100.25;;;6.41;100.00
21129;BME280;10722;51.910;8.352;2023-12-22T13:27:03;99100.22;;;6.35;100.00
21129;BME280;10722;51.910;8.352;2023-12-22T13:29:49;99113.06;;;6.35;100.00
21129;BME280;10722;51.910;8.352;2023-12-22T13:32:34;99109.59;;;6.30;100.00
21129;BME280;10722;51.910;8.352;2023-12-22T13:35:23;99127.56;;;6.30;100.00
21129;BME280;10722;51.910;8.352;2023-12-22T13:38:09;99124.88;;;6.18;100.00
21129;BME280;10722;51.910;8.352;2023-12-22T13:40:54;99133.47;;;6.21;100.00
21129;BME280;10722;51.910;8.352;2023-12-22T13:43:39;99125.63;;;6.07;100.00
21129;BME280;10722;51.910;8.352;2023-12-22T13:46:27;99127.50;;;6.24;100.00
21129;BME280;10722;51.910;8.352;2023-12-22T13:49:12;99127.47;;;6.18;100.00
21129;BME280;10722;51.910;8.352;2023-12-22T13:51:58;99142.81;;;6.13;100.00
21129;BME280;10722;51.910;8.352;2023-12-22T13:54:43;99150.41;;;6.04;100.00
21129;BME280;10722;51.910;8.352;2023-12-22T13:57:28;99156.53;;;6.15;100.00
21129;BME280;10722;51.910;8.352;2023-12-22T14:03:04;99147.91;;;6.09;100.00
21129;BME280;10722;51.910;8.352;2023-12-22T14:05:52;99155.66;;;6.13;100.00
21129;BME280;10722;51.910;8.352;2023-12-22T14:08:41;99144.34;;;5.94;100.00
21129;BME280;10722;51.910;8.352;2023-12-22T14:11:26;99142.72;;;6.04;100.00
21129;BME280;10722;51.910;8.352;2023-12-22T14:14:15;99140.94;;;5.98;100.00
21129;BME280;10722;51.910;8.352;2023-12-22T14:17:00;99137.44;;;5.92;100.00
21129;BME280;10722;51.910;8.352;2023-12-22T14:19:45;99142.63;;;5.95;100.00
21129;BME280;10722;51.910;8.352;2023-12-22T14:22:30;99139.22;;;5.94;100.00
21129;BME280;10722;51.910;8.352;2023-12-22T14:25:15;99138.34;;;5.97;100.00
21129;BME280;10722;51.910;8.352;2023-12-22T14:28:00;99127.97;;;5.88;100.00
21129;BME280;10722;51.910;8.352;2023-12-22T14:30:45;99131.50;;;5.96;100.00
21129;BME280;10722;51.910;8.352;2023-12-22T14:33:30;99132.28;;;5.89;100.00
21129;BME280;10722;51.910;8.352;2023-12-22T14:36:15;99132.19;;;5.82;100.00
21129;BME280;10722;51.910;8.352;2023-12-22T14:39:00;99137.44;;;5.92;100.00
21129;BME280;10722;51.910;8.352;2023-12-22T14:41:45;99147.63;;;5.87;100.00
21129;BME280;10722;51.910;8.352;2023-12-22T14:44:30;99135.69;;;5.89;100.00
21129;BME280;10722;51.910;8.352;2023-12-22T14:47:16;99144.25;;;5.91;100.00
21129;BME280;10722;51.910;8.352;2023-12-22T14:50:02;99148.56;;;5.92;100.00
21129;BME280;10722;51.910;8.352;2023-12-22T14:52:47;99149.47;;;5.94;100.00
21129;BME280;10722;51.910;8.352;2023-12-22T14:55:33;99152.94;;;5.99;100.00